createdAt,value
2018-11-29T00:00:15.851Z,62.50
2018-11-29T00:02:44.301Z,62.20
2018-11-29T00:05:12.614Z,61.70
2018-11-29T00:07:40.887Z,61.60
2018-11-29T00:10:16.018Z,61.50
2018-11-29T00:12:44.294Z,61.90
2018-11-29T00:15:14.443Z,61.40
2018-11-29T00:17:42.762Z,61.60
2018-11-29T00:20:12.930Z,61.70
2018-11-29T00:22:41.598Z,61.80
2018-11-29T00:25:11.162Z,61.70
2018-11-29T00:27:39.629Z,61.90
2018-11-29T00:30:11.362Z,62.00
2018-11-29T00:32:39.684Z,62.20
2018-11-29T00:35:09.337Z,62.20
2018-11-29T00:37:37.689Z,62.20
2018-11-29T00:40:09.267Z,62.10
2018-11-29T00:42:37.536Z,62.00
2018-11-29T00:45:08.034Z,61.80
2018-11-29T00:47:36.404Z,61.80
2018-11-29T00:50:06.199Z,61.90
2018-11-29T00:52:34.737Z,61.90
2018-11-29T00:55:03.107Z,61.80
2018-11-29T00:57:31.466Z,61.90
2018-11-29T00:59:59.815Z,62.10
2018-11-29T01:02:28.099Z,61.90
2018-11-29T01:04:56.434Z,62.00
2018-11-29T01:07:24.945Z,61.90
2018-11-29T01:09:53.270Z,61.80
2018-11-29T01:12:21.584Z,62.10
2018-11-29T01:14:49.982Z,61.60
2018-11-29T01:17:18.290Z,62.10
2018-11-29T01:19:46.605Z,61.40
2018-11-29T01:22:14.963Z,62.20
2018-11-29T01:24:43.250Z,61.30
2018-11-29T01:27:11.545Z,61.20
2018-11-29T01:29:39.837Z,61.10
2018-11-29T01:32:08.156Z,61.10
2018-11-29T01:34:36.505Z,61.00
2018-11-29T01:37:04.856Z,61.00
2018-11-29T01:39:33.247Z,60.80
2018-11-29T01:42:01.640Z,61.00
2018-11-29T01:44:29.950Z,61.50
2018-11-29T01:46:58.328Z,61.20
2018-11-29T01:49:26.602Z,61.40
2018-11-29T01:51:54.920Z,61.90
2018-11-29T01:54:23.234Z,62.40
2018-11-29T01:56:51.527Z,63.00
2018-11-29T01:59:19.958Z,63.40
2018-11-29T02:01:48.387Z,63.50
2018-11-29T02:04:16.777Z,63.60
2018-11-29T02:06:45.102Z,63.90
2018-11-29T02:09:13.397Z,63.40
2018-11-29T02:11:41.960Z,63.00
2018-11-29T02:14:10.287Z,63.50
2018-11-29T02:16:38.573Z,62.60
2018-11-29T02:19:06.875Z,62.40
2018-11-29T02:21:35.239Z,62.30
2018-11-29T02:24:03.689Z,61.90
2018-11-29T02:26:32.029Z,61.80
2018-11-29T02:29:00.325Z,61.70
2018-11-29T04:40:21.776Z,62.10
2018-11-29T04:42:50.620Z,61.40
2018-11-29T04:45:18.956Z,61.00
2018-11-29T04:47:47.768Z,60.80
2018-11-29T04:50:17.201Z,60.80
2018-11-29T04:52:45.698Z,61.20
2018-11-29T04:55:14.322Z,60.50
2018-11-29T04:57:42.636Z,60.20
2018-11-29T05:00:17.635Z,60.10
2018-11-29T05:02:46.050Z,60.60
2018-11-29T05:05:14.785Z,60.00
2018-11-29T05:07:43.209Z,59.90
2018-11-29T05:10:12.374Z,59.70
2018-11-29T05:12:40.669Z,60.00
2018-11-29T05:15:11.116Z,59.40
2018-11-29T05:17:39.441Z,59.30
2018-11-29T05:20:08.142Z,59.40
2018-11-29T05:22:36.615Z,59.60
2018-11-29T05:25:05.644Z,59.60
2018-11-29T05:27:33.994Z,59.90
2018-11-29T05:30:02.355Z,59.70
2018-11-29T05:32:31.885Z,59.70
2018-11-29T05:35:00.635Z,59.80
2018-11-29T05:37:29.316Z,59.70
2018-11-29T05:39:57.738Z,59.50
2018-11-29T05:42:26.445Z,59.40
2018-11-29T05:44:54.773Z,59.50
2018-11-29T05:47:23.073Z,59.50
2018-11-29T05:49:51.636Z,59.60
2018-11-29T05:52:20.021Z,59.70
2018-11-29T05:54:48.397Z,60.20
2018-11-29T05:57:16.732Z,59.60
2018-11-29T05:59:45.127Z,59.60
2018-11-29T06:02:13.501Z,60.00
2018-11-29T06:04:41.891Z,59.70
2018-11-29T06:07:10.194Z,59.50
2018-11-29T06:09:38.479Z,59.60
2018-11-29T06:12:06.902Z,59.50
2018-11-29T06:14:35.284Z,59.30
2018-11-29T06:17:03.861Z,59.90
2018-11-29T06:19:32.213Z,59.50
2018-11-29T06:22:00.573Z,60.00
2018-11-29T06:24:28.896Z,59.70
2018-11-29T06:26:57.301Z,59.70
2018-11-29T06:29:25.608Z,59.80
2018-11-29T06:31:53.917Z,59.90
2018-11-29T06:34:22.305Z,59.90
2018-11-29T06:36:50.613Z,60.20
2018-11-29T06:39:18.944Z,60.70
2018-11-29T06:41:47.459Z,60.10
2018-11-29T06:44:15.931Z,60.00
2018-11-29T06:46:44.247Z,60.20
2018-11-29T06:49:12.551Z,60.10
2018-11-29T06:51:40.949Z,60.10
2018-11-29T06:54:09.294Z,60.20
2018-11-29T06:56:37.609Z,60.00
2018-11-29T06:59:06.616Z,60.20
2018-11-29T07:01:35.045Z,60.70
2018-11-29T07:04:03.557Z,60.00
2018-11-29T07:06:31.950Z,60.30
2018-11-29T07:09:00.339Z,59.90
2018-11-29T07:11:28.881Z,59.60
2018-11-29T07:13:57.282Z,59.60
2018-11-29T07:16:25.576Z,59.90
2018-11-29T07:18:53.889Z,59.30
2018-11-29T07:21:33.546Z,59.90
2018-11-29T07:24:01.865Z,59.40
2018-11-29T07:26:30.315Z,59.50
2018-11-29T07:28:58.670Z,59.50
2018-11-29T07:31:27.054Z,59.40
2018-11-29T07:33:55.414Z,59.40
2018-11-29T07:36:23.780Z,59.50
2018-11-29T07:38:52.081Z,59.30
2018-11-29T07:41:20.365Z,59.30
2018-11-29T07:43:48.652Z,59.30
2018-11-29T07:46:17.372Z,58.90
2018-11-29T07:48:45.305Z,58.90
2018-11-29T07:51:13.623Z,58.90
2018-11-29T07:53:42.053Z,59.10
2018-11-29T07:56:10.417Z,59.70
2018-11-29T07:58:38.746Z,59.00
2018-11-29T08:01:07.333Z,58.90
2018-11-29T08:03:35.754Z,59.00
2018-11-29T08:06:04.101Z,59.40
2018-11-29T08:08:32.645Z,58.30
2018-11-29T08:11:01.116Z,58.30
2018-11-29T08:13:29.485Z,58.50
2018-11-29T08:15:57.932Z,58.60
2018-11-29T08:18:26.245Z,58.60
2018-11-29T08:20:54.577Z,58.60
2018-11-29T08:23:22.946Z,58.50
2018-11-29T08:25:51.271Z,58.90
2018-11-29T08:28:19.605Z,58.60
2018-11-29T08:30:48.023Z,58.70
2018-11-29T08:33:16.585Z,58.40
2018-11-29T08:35:44.997Z,58.30
2018-11-29T08:38:13.318Z,58.10
2018-11-29T08:40:41.658Z,58.20
2018-11-29T08:43:10.037Z,57.90
2018-11-29T08:45:38.381Z,58.00
2018-11-29T08:48:07.964Z,58.90
2018-11-29T08:50:36.301Z,58.90
2018-11-29T08:53:05.101Z,58.50
2018-11-29T08:55:33.472Z,58.50
2018-11-29T08:58:01.813Z,58.20
2018-11-29T09:00:30.429Z,57.90
2018-11-29T09:02:58.988Z,58.30
2018-11-29T09:05:27.334Z,58.50
2018-11-29T09:07:55.663Z,58.50
2018-11-29T09:10:24.249Z,58.70
2018-11-29T09:12:52.937Z,59.00
2018-11-29T09:15:21.361Z,59.00
2018-11-29T09:17:49.687Z,58.90
2018-11-29T09:20:20.965Z,58.70
2018-11-29T09:22:49.486Z,58.70
2018-11-29T09:25:20.032Z,59.00
2018-11-29T09:27:48.345Z,58.80
2018-11-29T09:30:19.736Z,58.90
2018-11-29T09:32:49.037Z,58.30
2018-11-29T09:35:17.465Z,58.00
2018-11-29T09:37:45.899Z,57.40
2018-11-29T09:40:16.240Z,57.50
2018-11-29T09:42:44.697Z,57.50
2018-11-29T09:45:18.130Z,57.30
2018-11-29T09:47:48.457Z,57.20
2018-11-29T09:50:17.409Z,57.10
2018-11-29T09:52:45.738Z,56.80
2018-11-29T09:55:15.628Z,56.90
2018-11-29T09:57:44.768Z,56.20
2018-11-29T10:00:17.409Z,56.20
2018-11-29T10:02:53.473Z,56.90
2018-11-29T10:05:21.900Z,56.90
2018-11-29T10:07:50.546Z,56.60
2018-11-29T10:10:18.894Z,56.60
2018-11-29T10:12:47.300Z,55.30
2018-11-29T10:15:15.665Z,55.60
2018-11-29T10:17:44.922Z,55.20
2018-11-29T10:20:14.218Z,54.70
2018-11-29T10:22:43.532Z,54.80
2018-11-29T10:25:14.233Z,54.70
2018-11-29T10:27:44.540Z,54.80
2018-11-29T10:30:18.455Z,54.40
2018-11-29T10:32:47.490Z,54.50
2018-11-29T10:35:16.157Z,54.20
2018-11-29T10:37:45.408Z,54.00
2018-11-29T10:40:14.703Z,54.10
2018-11-29T10:42:43.747Z,54.40
2018-11-29T10:45:13.607Z,54.60
2018-11-29T10:47:43.093Z,54.50
2018-11-29T10:50:12.666Z,54.30
2018-11-29T10:52:41.075Z,54.20
2018-11-29T10:55:14.493Z,54.10
2018-11-29T10:57:42.974Z,54.70
2018-11-29T11:00:23.232Z,53.80
2018-11-29T11:02:57.557Z,53.60
2018-11-29T11:05:25.937Z,53.30
2018-11-29T11:07:54.854Z,52.90
2018-11-29T11:10:23.255Z,52.80
2018-11-29T11:12:51.632Z,53.00
2018-11-29T11:15:20.059Z,53.10
2018-11-29T11:17:48.562Z,53.40
2018-11-29T11:20:16.955Z,53.40
2018-11-29T11:22:45.422Z,53.30
2018-11-29T11:25:13.830Z,53.70
2018-11-29T11:27:42.315Z,53.80
2018-11-29T11:30:16.794Z,53.70
2018-11-29T11:32:46.460Z,53.90
2018-11-29T11:35:14.847Z,54.20
2018-11-29T11:37:43.271Z,54.00
2018-11-29T11:40:13.943Z,54.10
2018-11-29T11:42:42.424Z,54.00
2018-11-29T11:45:14.810Z,53.90
2018-11-29T11:47:43.249Z,53.80
2018-11-29T11:50:19.552Z,53.80
2018-11-29T11:52:48.323Z,53.70
2018-11-29T11:55:19.182Z,54.00
2018-11-29T11:57:45.830Z,54.10
2018-11-29T12:00:20.126Z,54.30
2018-11-29T12:02:52.070Z,54.50
2018-11-29T12:05:20.681Z,54.60
2018-11-29T12:07:49.125Z,54.30
2018-11-29T12:10:17.552Z,54.20
2018-11-29T12:12:45.961Z,53.90
2018-11-29T12:15:15.268Z,53.90
2018-11-29T12:17:44.726Z,53.70
2018-11-29T12:20:14.238Z,53.80
2018-11-29T12:22:42.712Z,53.80
2018-11-29T12:25:12.278Z,53.50
2018-11-29T12:27:40.658Z,53.50
2018-11-29T12:30:14.173Z,53.80
2018-11-29T12:32:42.577Z,54.00
2018-11-29T12:35:10.978Z,53.70
2018-11-29T12:37:39.405Z,53.40
2018-11-29T12:40:09.882Z,53.50
2018-11-29T12:42:38.599Z,53.90
2018-11-29T12:45:09.472Z,53.90
2018-11-29T12:47:37.866Z,53.90
2018-11-29T12:50:09.940Z,53.90
2018-11-29T12:52:38.361Z,53.90
2018-11-29T12:55:08.129Z,53.90
2018-11-29T12:57:36.481Z,53.90
2018-11-29T13:00:11.629Z,53.70
2018-11-29T13:02:42.846Z,53.80
2018-11-29T13:05:11.250Z,53.80
2018-11-29T13:07:39.633Z,53.90
2018-11-29T13:10:08.154Z,53.70
2018-11-29T13:12:36.464Z,53.90
2018-11-29T13:15:08.325Z,54.10
2018-11-29T13:17:36.709Z,54.10
2018-11-29T13:20:07.871Z,54.00
2018-11-29T13:22:42.542Z,53.90
2018-11-29T13:25:14.266Z,53.70
2018-11-29T13:27:42.768Z,53.60
2018-11-29T13:30:15.139Z,53.70
2018-11-29T13:32:43.584Z,54.30
2018-11-29T13:35:18.797Z,53.70
2018-11-29T13:37:54.520Z,53.60
2018-11-29T13:40:23.027Z,54.60
2018-11-29T13:42:51.370Z,53.90
2018-11-29T13:45:20.230Z,54.00
2018-11-29T13:47:48.705Z,54.30
2018-11-29T13:50:17.745Z,54.20
2018-11-29T13:52:46.553Z,54.20
2018-11-29T13:55:15.701Z,54.30
2018-11-29T13:57:47.453Z,54.20
2018-11-29T14:00:17.845Z,54.30
2018-11-29T14:02:47.678Z,54.60
2018-11-29T14:05:16.179Z,54.20
2018-11-29T14:07:44.558Z,54.40
2018-11-29T14:10:16.838Z,54.50
2018-11-29T14:12:45.982Z,54.80
2018-11-29T14:15:19.378Z,54.50
2018-11-29T14:17:47.774Z,54.20
2018-11-29T14:20:16.513Z,54.50
2018-11-29T14:22:44.829Z,54.80
2018-11-29T14:25:13.946Z,54.40
2018-11-29T14:27:43.416Z,54.80
2018-11-29T14:30:18.660Z,56.20
2018-11-29T14:32:47.232Z,56.70
2018-11-29T14:35:15.594Z,56.60
2018-11-29T14:37:43.925Z,56.40
2018-11-29T14:40:18.440Z,56.40
2018-11-29T14:42:46.777Z,56.10
2018-11-29T14:45:16.487Z,56.60
2018-11-29T14:47:44.820Z,56.70
2018-11-29T14:50:17.233Z,56.50
2018-11-29T14:52:45.503Z,56.40
2018-11-29T14:55:14.128Z,56.20
2018-11-29T14:57:42.550Z,56.20
2018-11-29T15:00:12.497Z,56.40
2018-11-29T15:02:41.158Z,55.50
2018-11-29T15:05:12.075Z,55.00
2018-11-29T15:07:40.446Z,55.20
2018-11-29T15:10:11.709Z,55.20
2018-11-29T15:12:40.123Z,55.40
2018-11-29T15:15:09.778Z,55.10
2018-11-29T15:17:38.680Z,55.00
2018-11-29T15:20:12.643Z,55.00
2018-11-29T15:22:41.038Z,55.30
2018-11-29T15:25:09.564Z,54.90
2018-11-29T15:27:37.865Z,54.80
2018-11-29T15:30:10.258Z,54.40
2018-11-29T15:32:38.653Z,54.30
2018-11-29T15:35:07.809Z,54.40
2018-11-29T15:37:36.638Z,54.70
2018-11-29T15:40:10.735Z,55.00
2018-11-29T15:42:39.077Z,55.10
2018-11-29T15:45:10.259Z,55.10
2018-11-29T15:47:38.599Z,56.20
2018-11-29T15:50:10.825Z,56.10
2018-11-29T15:52:39.239Z,56.60
2018-11-29T15:55:09.805Z,56.30
2018-11-29T15:57:38.149Z,56.10
2018-11-29T16:00:16.501Z,56.50
2018-11-29T16:02:45.640Z,56.00
2018-11-29T16:05:13.981Z,55.80
2018-11-29T16:07:42.728Z,55.70
2018-11-29T16:10:13.445Z,55.50
2018-11-29T16:12:41.995Z,54.60
2018-11-29T16:15:14.146Z,54.80
2018-11-29T16:17:42.695Z,56.00
2018-11-29T16:20:21.367Z,54.70
2018-11-29T16:22:49.794Z,54.90
2018-11-29T16:25:18.127Z,55.40
2018-11-29T16:27:46.444Z,54.40
2018-11-29T16:30:23.698Z,54.50
2018-11-29T16:32:52.067Z,54.70
2018-11-29T16:35:20.602Z,54.30
2018-11-29T16:37:48.941Z,54.40
2018-11-29T16:40:17.255Z,54.40
2018-11-29T16:42:45.549Z,54.40
2018-11-29T16:45:14.217Z,54.30
2018-11-29T16:47:42.946Z,54.30
2018-11-29T16:50:12.493Z,54.40
2018-11-29T16:52:40.825Z,54.40
2018-11-29T16:55:10.201Z,54.40
2018-11-29T16:57:39.443Z,54.30
2018-11-29T17:00:12.734Z,54.30
2018-11-29T17:02:41.102Z,54.30
2018-11-29T17:05:11.064Z,54.40
2018-11-29T17:07:39.398Z,54.90
2018-11-29T17:10:10.909Z,54.70
2018-11-29T17:12:39.503Z,54.00
2018-11-29T17:15:12.932Z,54.00
2018-11-29T17:17:41.264Z,54.10
2018-11-29T17:20:11.359Z,54.50
2018-11-29T17:22:39.745Z,54.20
2018-11-29T17:25:09.694Z,54.70
2018-11-29T17:27:38.108Z,54.40
2018-11-29T17:30:18.910Z,54.20
2018-11-29T17:32:47.625Z,54.20
2018-11-29T17:35:16.017Z,54.20
2018-11-29T17:37:44.383Z,54.30
2018-11-29T17:40:18.871Z,54.20
2018-11-29T17:42:47.272Z,54.30
2018-11-29T17:45:19.642Z,54.30
2018-11-29T17:47:48.413Z,54.10
2018-11-29T17:50:48.752Z,54.00
2018-11-29T17:53:17.225Z,54.10
2018-11-29T17:55:45.554Z,53.80
2018-11-29T17:58:14.963Z,53.70
2018-11-29T18:00:45.840Z,54.00
2018-11-29T18:03:16.463Z,53.70
2018-11-29T18:05:44.816Z,53.70
2018-11-29T18:08:13.161Z,54.10
2018-11-29T18:10:41.945Z,54.10
2018-11-29T18:13:15.254Z,54.20
2018-11-29T18:15:43.630Z,54.20
2018-11-29T18:18:12.034Z,54.20
2018-11-29T18:20:40.357Z,54.30
2018-11-29T18:23:10.336Z,54.40
2018-11-29T18:25:38.932Z,54.50
2018-11-29T18:28:07.937Z,54.50
2018-11-29T18:30:36.650Z,54.70
2018-11-29T18:33:05.601Z,54.80
2018-11-29T18:35:34.205Z,54.80
2018-11-29T18:38:02.621Z,54.80
2018-11-29T18:40:33.383Z,54.90
2018-11-29T18:43:01.982Z,54.90
2018-11-29T18:48:10.815Z,56.00
2018-11-29T18:50:39.835Z,56.00
2018-11-29T18:53:08.625Z,55.10
2018-11-29T18:55:37.220Z,55.90
2018-11-29T18:58:06.689Z,55.90
2018-11-29T19:00:36.105Z,55.90
2018-11-29T19:03:04.507Z,55.90
2018-11-29T19:05:33.429Z,56.20
2018-11-29T19:08:01.871Z,56.20
2018-11-29T19:10:30.272Z,56.50
2018-11-29T19:13:01.079Z,56.80
2018-11-29T19:15:29.705Z,56.90
2018-11-29T19:17:58.055Z,56.60
2018-11-29T19:20:26.363Z,56.70
2018-11-29T19:22:54.727Z,56.60
2018-11-29T19:25:23.177Z,56.70
2018-11-29T19:27:51.477Z,56.60
2018-11-29T19:30:24.865Z,56.90
2018-11-29T19:33:04.302Z,56.90
2018-11-29T19:35:32.747Z,56.70
2018-11-29T19:38:01.105Z,57.30
2018-11-29T19:40:29.574Z,57.30
2018-11-29T19:42:57.853Z,57.30
2018-11-29T19:45:26.447Z,57.50
2018-11-29T19:47:54.741Z,57.50
2018-11-29T19:50:23.045Z,57.50
2018-11-29T19:52:55.906Z,57.50
2018-11-29T19:55:26.593Z,57.70
2018-11-29T19:57:54.927Z,57.90
2018-11-29T20:00:23.218Z,58.10
2018-11-29T20:02:52.957Z,58.20
2018-11-29T20:05:21.284Z,58.40
2018-11-29T20:07:49.669Z,58.40
2018-11-29T20:10:18.902Z,58.50
2018-11-29T20:12:53.979Z,58.60
2018-11-29T20:15:22.289Z,58.60
2018-11-29T20:17:50.689Z,58.60
2018-11-29T20:20:19.129Z,58.90
2018-11-29T20:22:47.570Z,58.90
2018-11-29T20:25:17.110Z,59.40
2018-11-29T20:27:45.546Z,58.80
2018-11-29T20:30:15.174Z,58.90
2018-11-29T20:32:43.558Z,58.90
2018-11-29T20:35:12.539Z,59.00
2018-11-29T20:37:41.963Z,58.80
2018-11-29T20:40:13.532Z,59.00
2018-11-29T20:42:42.297Z,58.90
2018-11-29T20:45:15.384Z,59.00
2018-11-29T20:47:44.024Z,58.90
2018-11-29T20:50:14.778Z,59.00
2018-11-29T20:52:42.309Z,59.10
2018-11-29T20:55:13.965Z,59.10
2018-11-29T20:57:42.303Z,59.10
2018-11-29T21:00:13.253Z,59.70
2018-11-29T21:02:42.074Z,59.70
2018-11-29T21:05:11.946Z,59.30
2018-11-29T21:07:40.918Z,59.80
2018-11-29T21:10:18.438Z,59.10
2018-11-29T21:12:46.758Z,59.40
2018-11-29T21:15:15.093Z,59.20
2018-11-29T21:17:43.696Z,59.10
2018-11-29T21:20:13.974Z,59.10
2018-11-29T21:22:43.502Z,59.10
2018-11-29T21:25:13.706Z,59.10
2018-11-29T21:27:43.309Z,58.80
2018-11-29T21:30:13.625Z,58.70
2018-11-29T21:32:42.138Z,58.70
2018-11-29T21:35:13.031Z,58.50
2018-11-29T21:37:42.395Z,58.70
2018-11-29T21:40:19.411Z,58.10
2018-11-29T21:42:47.761Z,58.00
2018-11-29T21:45:16.282Z,58.10
2018-11-29T21:47:44.628Z,58.10
2018-11-29T21:50:12.966Z,58.10
2018-11-29T21:52:41.664Z,58.00
2018-11-29T21:55:10.042Z,57.90
2018-11-29T21:57:38.563Z,57.90
2018-11-29T22:00:09.553Z,57.80
2018-11-29T22:02:41.737Z,57.80
2018-11-29T22:05:06.374Z,58.10
2018-11-29T22:07:34.698Z,57.70
2018-11-29T22:10:03.135Z,57.80
2018-11-29T22:12:31.516Z,57.70
2018-11-29T22:15:00.120Z,57.80
2018-11-29T22:17:28.542Z,57.70
2018-11-29T22:19:56.892Z,57.60
2018-11-29T22:22:28.279Z,58.30
2018-11-29T22:24:53.680Z,57.70
2018-11-29T22:27:21.998Z,58.00
2018-11-29T22:29:50.727Z,58.30
2018-11-29T22:32:19.063Z,57.90
2018-11-29T22:34:47.365Z,58.50
2018-11-29T22:37:15.658Z,58.00
2018-11-29T22:39:43.970Z,57.90
2018-11-29T22:42:12.783Z,57.90
2018-11-29T22:44:41.151Z,57.80
2018-11-29T22:47:09.545Z,58.10
2018-11-29T22:49:38.036Z,57.80
2018-11-29T22:52:06.496Z,57.90
2018-11-29T22:54:34.925Z,58.00
2018-11-29T22:57:03.718Z,58.10
2018-11-29T22:59:32.093Z,58.10
2018-11-29T23:02:00.554Z,58.50
2018-11-29T23:04:28.973Z,58.60
2018-11-29T23:06:57.358Z,58.40
2018-11-29T23:09:25.798Z,58.60
2018-11-29T23:11:54.300Z,58.10
2018-11-29T23:14:22.698Z,58.10
2018-11-29T23:16:51.095Z,58.20
2018-11-29T23:19:19.431Z,58.10
2018-11-29T23:21:47.869Z,58.20
2018-11-29T23:24:16.221Z,58.40
2018-11-29T23:26:44.585Z,58.30
2018-11-29T23:29:13.029Z,58.30
2018-11-29T23:31:41.375Z,58.20
2018-11-29T23:34:09.730Z,58.30
2018-11-29T23:36:38.457Z,58.40
2018-11-29T23:39:07.833Z,58.40
2018-11-29T23:41:36.310Z,58.40
2018-11-29T23:44:04.984Z,58.30
2018-11-29T23:46:33.431Z,58.10
2018-11-29T23:49:01.836Z,58.00
2018-11-29T23:51:30.313Z,58.40
2018-11-29T23:53:58.743Z,58.10
2018-11-29T23:56:27.133Z,58.20
2018-11-29T23:58:55.549Z,58.20
